Sea Drift — WDC2818 — position and weather

sailwx.info

Track history (hours):
 
Tides and Currents Weather Stations Pressure Air Temp Water Temp Dewpoint Dewpoint Depression Visibility Wind Speed Wind Dir Waves Ship Positions

Sea Drift

Owner: Marquette Transportation Company Gulf-Inland, LLC, Jefferson, LA. More information available from US FCC via Universal Licensing System and Coast Guard Vessel Documentation Center.

Last reported at 2016-May-28 14:08 UTC. Time now 2016-May-30 14:38 UTC.
Position N 29°47' W 092°11'.

Length 23 m; draft 3 m.

Type: Towing. MMSI: 366998080.

Date/timePositionNaut miles runAvg speedWind from/ knotsBaromVisibWave heightAir tempDewpointWater temp
2016-May-28 14:08N 29°47' W 092°11'3 5.2
2016-May-28 13:30N 29°48' W 092°14'21 3.1
2016-May-28 06:33N 29°55' W 092°38'3 3.1
2016-May-28 05:33N 29°56' W 092°41'13 1.6
2016-May-27 21:20N 29°56' W 092°56'3 3.5
2016-May-27 20:33N 29°56' W 092°59'3 2.8
2016-May-27 19:33N 29°56' W 093°02'4 3.8
2016-May-27 18:33N 29°56' W 093°07'3 3.4
2016-May-27 17:33N 29°57' W 093°10'4 4.1
2016-May-27 16:33N 30°00' W 093°14'4 3.6
2016-May-27 15:33N 30°03' W 093°16'4 3.7
2016-May-27 14:33N 30°06' W 093°18'0 0.1
2016-May-27 13:33N 30°06' W 093°18'0 0.0
2016-May-27 12:33N 30°06' W 093°18'0 0.0
2016-May-27 11:33N 30°06' W 093°18'0 0.0
2016-May-27 10:33N 30°06' W 093°18'1 0.8
2016-May-27 09:33N 30°06' W 093°19'4 4.2
2016-May-27 08:33N 30°04' W 093°23'5 5.0
2016-May-27 07:33N 30°04' W 093°29'5 5.1
2016-May-27 06:33N 30°04' W 093°35'5 5.1
2016-May-27 05:33N 30°04' W 093°41'3 3.3
2016-May-27 04:33N 30°02' W 093°44'68 3.6
2016-May-26 09:33N 29°41' W 094°59'6 5.7
2016-May-26 08:31N 29°45' W 095°04'2 0.9
2016-May-26 06:31N 29°46' W 095°05'0 0.1
2016-May-26 05:33N 29°46' W 095°05'1 0.4
2016-May-26 03:13N 29°46' W 095°06'0 0.0
2016-May-26 01:15N 29°46' W 095°06'1 0.6
2016-May-26 00:21N 29°45' W 095°06'1 0.5
2016-May-25 23:05N 29°46' W 095°05'0 0.0
2016-May-25 22:29N 29°46' W 095°05'1 0.3
2016-May-25 20:14N 29°45' W 095°06'3 4.5
2016-May-25 19:33N 29°44' W 095°03'6 6.3
2016-May-25 18:33N 29°39' W 094°58'8 7.7
2016-May-25 17:33N 29°32' W 094°54'8 8.4
2016-May-25 16:33N 29°25' W 094°49'4 3.8
2016-May-25 15:31N 29°24' W 094°45'2 2.0
2016-May-25 14:33N 29°26' W 094°43'59 4.5
2016-May-25 01:16N 29°60' W 093°47'3 4.0
2016-May-25 00:33N 30°01' W 093°45'6 6.1
2016-May-24 23:33N 30°04' W 093°38'6 6.2
2016-May-24 22:33N 30°04' W 093°31'6 6.3
2016-May-24 21:33N 30°04' W 093°23'2 1.9
2016-May-24 20:33N 30°04' W 093°21'2 2.2
2016-May-24 19:33N 30°05' W 093°20'1 1.2
2016-May-24 18:33N 30°06' W 093°19'2 1.6
2016-May-24 17:33N 30°05' W 093°17'1 0.8
2016-May-24 16:33N 30°05' W 093°17'0 0.1
2016-May-24 15:33N 30°05' W 093°16'0 0.1
2016-May-24 14:34N 30°04' W 093°16'0 0.0
2016-May-24 13:33N 30°04' W 093°16'0 0.0
2016-May-24 12:33N 30°04' W 093°16'0 0.0
2016-May-24 11:34N 30°04' W 093°16'0 0.0
2016-May-24 10:33N 30°04' W 093°16'0 0.0
2016-May-24 09:33N 30°04' W 093°16'0 0.0
2016-May-24 08:33N 30°04' W 093°16'0 0.0
2016-May-24 07:33N 30°04' W 093°16'0 0.0
2016-May-24 06:33N 30°04' W 093°16'0 0.0
2016-May-24 05:33N 30°04' W 093°16'0 0.0
2016-May-24 04:33N 30°04' W 093°16'0 0.2
2016-May-24 03:33N 30°04' W 093°16'4 3.8
2016-May-24 02:33N 30°01' W 093°14'3 3.0
2016-May-24 01:33N 29°59' W 093°12'4 4.2
2016-May-24 00:33N 29°56' W 093°08'4 3.8
2016-May-23 23:33N 29°56' W 093°04'5 4.2
2016-May-23 22:20N 29°56' W 092°58'40 3.4
2016-May-23 10:28N 29°47' W 092°13'70 3.2
2016-May-22 12:31N 29°33' W 090°54'4 3.9
2016-May-22 11:33N 29°32' W 090°50'4 4.0
2016-May-22 10:33N 29°32' W 090°46'3 2.6
2016-May-22 09:33N 29°34' W 090°43'3 3.1
2016-May-22 08:33N 29°37' W 090°42'3 3.3
2016-May-22 07:33N 29°35' W 090°39'4 3.8
2016-May-22 06:33N 29°34' W 090°34'4 4.0
2016-May-22 05:33N 29°34' W 090°30'4 4.1
2016-May-22 04:33N 29°33' W 090°25'5 2.0
2016-May-22 02:08N 29°37' W 090°21'25 2.0
2016-May-21 13:33N 29°53' W 090°00'2 2.5
2016-May-21 12:33N 29°55' W 089°58'0 0.2
2016-May-21 11:33N 29°55' W 089°58'0 0.2
2016-May-21 10:33N 29°55' W 089°58'0 0.0
2016-May-21 09:34N 29°55' W 089°58'0 0.0
2016-May-21 08:33N 29°55' W 089°58'0 0.0
2016-May-21 07:33N 29°55' W 089°58'0 0.0
2016-May-21 06:33N 29°55' W 089°58'0 0.0
2016-May-21 05:33N 29°55' W 089°58'0 0.0
2016-May-21 04:33N 29°55' W 089°58'0 0.0
2016-May-21 03:33N 29°55' W 089°58'0 0.0
2016-May-21 02:33N 29°55' W 089°58'0 0.0
2016-May-21 01:33N 29°55' W 089°58'0 0.0
2016-May-21 00:33N 29°55' W 089°58'0 0.0
2016-May-20 23:33N 29°55' W 089°58'0 0.0
2016-May-20 22:33N 29°55' W 089°58'0 0.0
2016-May-20 21:33N 29°55' W 089°58'0 0.1
2016-May-20 20:33N 29°55' W 089°58'4 4.1
2016-May-20 19:28N 29°58' W 090°02'5 5.1
2016-May-20 18:33N 29°55' W 090°07'4 3.9
2016-May-20 17:32N 29°56' W 090°11'1 0.3
2016-May-20 15:31N 29°56' W 090°12'0 0.1
2016-May-20 14:33N 29°56' W 090°12'2 2.2
2016-May-20 13:33N 29°57' W 090°14'  
Track history (hours):
 
Tides and Currents Weather Stations Pressure Air Temp Water Temp Dewpoint Dewpoint Depression Visibility Wind Speed Wind Dir Waves Ship Positions

Sea Drift

Owner: Marquette Transportation Company Gulf-Inland, LLC, Jefferson, LA. More information available from US FCC via Universal Licensing System and Coast Guard Vessel Documentation Center.

Last reported at 2016-May-28 14:08 UTC. Time now 2016-May-30 14:38 UTC.
Position N 29°47' W 092°11'.

Length 23 m; draft 3 m.

Type: Towing. MMSI: 366998080.

Date/timePositionNaut miles runAvg speedWind from/ knotsBaromVisibWave heightAir tempDewpointWater temp
2016-May-28 14:08N 29°47' W 092°11'3 5.2
2016-May-28 13:30N 29°48' W 092°14'21 3.1
2016-May-28 06:33N 29°55' W 092°38'3 3.1
2016-May-28 05:33N 29°56' W 092°41'13 1.6
2016-May-27 21:20N 29°56' W 092°56'3 3.5
2016-May-27 20:33N 29°56' W 092°59'3 2.8
2016-May-27 19:33N 29°56' W 093°02'4 3.8
2016-May-27 18:33N 29°56' W 093°07'3 3.4
2016-May-27 17:33N 29°57' W 093°10'4 4.1
2016-May-27 16:33N 30°00' W 093°14'4 3.6
2016-May-27 15:33N 30°03' W 093°16'4 3.7
2016-May-27 14:33N 30°06' W 093°18'0 0.1
2016-May-27 13:33N 30°06' W 093°18'0 0.0
2016-May-27 12:33N 30°06' W 093°18'0 0.0
2016-May-27 11:33N 30°06' W 093°18'0 0.0
2016-May-27 10:33N 30°06' W 093°18'1 0.8
2016-May-27 09:33N 30°06' W 093°19'4 4.2
2016-May-27 08:33N 30°04' W 093°23'5 5.0
2016-May-27 07:33N 30°04' W 093°29'5 5.1
2016-May-27 06:33N 30°04' W 093°35'5 5.1
2016-May-27 05:33N 30°04' W 093°41'3 3.3
2016-May-27 04:33N 30°02' W 093°44'68 3.6
2016-May-26 09:33N 29°41' W 094°59'6 5.7
2016-May-26 08:31N 29°45' W 095°04'2 0.9
2016-May-26 06:31N 29°46' W 095°05'0 0.1
2016-May-26 05:33N 29°46' W 095°05'1 0.4
2016-May-26 03:13N 29°46' W 095°06'0 0.0
2016-May-26 01:15N 29°46' W 095°06'1 0.6
2016-May-26 00:21N 29°45' W 095°06'1 0.5
2016-May-25 23:05N 29°46' W 095°05'0 0.0
2016-May-25 22:29N 29°46' W 095°05'1 0.3
2016-May-25 20:14N 29°45' W 095°06'3 4.5
2016-May-25 19:33N 29°44' W 095°03'6 6.3
2016-May-25 18:33N 29°39' W 094°58'8 7.7
2016-May-25 17:33N 29°32' W 094°54'8 8.4
2016-May-25 16:33N 29°25' W 094°49'4 3.8
2016-May-25 15:31N 29°24' W 094°45'2 2.0
2016-May-25 14:33N 29°26' W 094°43'59 4.5
2016-May-25 01:16N 29°60' W 093°47'3 4.0
2016-May-25 00:33N 30°01' W 093°45'6 6.1
2016-May-24 23:33N 30°04' W 093°38'6 6.2
2016-May-24 22:33N 30°04' W 093°31'6 6.3
2016-May-24 21:33N 30°04' W 093°23'2 1.9
2016-May-24 20:33N 30°04' W 093°21'2 2.2
2016-May-24 19:33N 30°05' W 093°20'1 1.2
2016-May-24 18:33N 30°06' W 093°19'2 1.6
2016-May-24 17:33N 30°05' W 093°17'1 0.8
2016-May-24 16:33N 30°05' W 093°17'0 0.1
2016-May-24 15:33N 30°05' W 093°16'0 0.1
2016-May-24 14:34N 30°04' W 093°16'0 0.0
2016-May-24 13:33N 30°04' W 093°16'0 0.0
2016-May-24 12:33N 30°04' W 093°16'0 0.0
2016-May-24 11:34N 30°04' W 093°16'0 0.0
2016-May-24 10:33N 30°04' W 093°16'0 0.0
2016-May-24 09:33N 30°04' W 093°16'0 0.0
2016-May-24 08:33N 30°04' W 093°16'0 0.0
2016-May-24 07:33N 30°04' W 093°16'0 0.0
2016-May-24 06:33N 30°04' W 093°16'0 0.0
2016-May-24 05:33N 30°04' W 093°16'0 0.0
2016-May-24 04:33N 30°04' W 093°16'0 0.2
2016-May-24 03:33N 30°04' W 093°16'4 3.8
2016-May-24 02:33N 30°01' W 093°14'3 3.0
2016-May-24 01:33N 29°59' W 093°12'4 4.2
2016-May-24 00:33N 29°56' W 093°08'4 3.8
2016-May-23 23:33N 29°56' W 093°04'5 4.2
2016-May-23 22:20N 29°56' W 092°58'40 3.4
2016-May-23 10:28N 29°47' W 092°13'70 3.2
2016-May-22 12:31N 29°33' W 090°54'4 3.9
2016-May-22 11:33N 29°32' W 090°50'4 4.0
2016-May-22 10:33N 29°32' W 090°46'3 2.6
2016-May-22 09:33N 29°34' W 090°43'3 3.1
2016-May-22 08:33N 29°37' W 090°42'3 3.3
2016-May-22 07:33N 29°35' W 090°39'4 3.8
2016-May-22 06:33N 29°34' W 090°34'4 4.0
2016-May-22 05:33N 29°34' W 090°30'4 4.1
2016-May-22 04:33N 29°33' W 090°25'5 2.0
2016-May-22 02:08N 29°37' W 090°21'25 2.0
2016-May-21 13:33N 29°53' W 090°00'2 2.5
2016-May-21 12:33N 29°55' W 089°58'0 0.2
2016-May-21 11:33N 29°55' W 089°58'0 0.2
2016-May-21 10:33N 29°55' W 089°58'0 0.0
2016-May-21 09:34N 29°55' W 089°58'0 0.0
2016-May-21 08:33N 29°55' W 089°58'0 0.0
2016-May-21 07:33N 29°55' W 089°58'0 0.0
2016-May-21 06:33N 29°55' W 089°58'0 0.0
2016-May-21 05:33N 29°55' W 089°58'0 0.0
2016-May-21 04:33N 29°55' W 089°58'0 0.0
2016-May-21 03:33N 29°55' W 089°58'0 0.0
2016-May-21 02:33N 29°55' W 089°58'0 0.0
2016-May-21 01:33N 29°55' W 089°58'0 0.0
2016-May-21 00:33N 29°55' W 089°58'0 0.0
2016-May-20 23:33N 29°55' W 089°58'0 0.0
2016-May-20 22:33N 29°55' W 089°58'0 0.0
2016-May-20 21:33N 29°55' W 089°58'0 0.1
2016-May-20 20:33N 29°55' W 089°58'4 4.1
2016-May-20 19:28N 29°58' W 090°02'5 5.1
2016-May-20 18:33N 29°55' W 090°07'4 3.9
2016-May-20 17:32N 29°56' W 090°11'1 0.3
2016-May-20 15:31N 29°56' W 090°12'0 0.1
2016-May-20 14:33N 29°56' W 090°12'2 2.2
2016-May-20 13:33N 29°57' W 090°14'  

Dump ship's entire track history